Time;durP1;ratioP1;P1;durP2;ratioP2;P2;SDS_P1;SDS_P2;PMS_P1;PMS_P2;Temp;Humidity;BMP_temperature;BMP_pressure;BME280_temperature;BME280_humidity;BME280_pressure;Samples;Min_cycle;Max_cycle;Signal;HPM_P1;HPM_P2
2023/01/10 00:01:35;;;;;;;0.73;0.40;;;4.30;84.60;;;;;;4972429;28;20033;-73
2023/01/10 00:04:00;;;;;;;1.05;0.50;;;4.20;85.00;;;;;;4972575;28;20023;-75
2023/01/10 00:06:26;;;;;;;0.77;0.50;;;4.20;85.00;;;;;;4972501;28;20022;-75
2023/01/10 00:08:51;;;;;;;2.78;0.60;;;4.20;85.00;;;;;;4972355;28;20059;-75
2023/01/10 00:14:01;;;;;;;3.38;0.93;;;4.20;85.40;;;;;;4972377;28;20025;-75
2023/01/10 00:16:26;;;;;;;2.40;0.85;;;4.20;85.30;;;;;;4972322;28;20105;-75
2023/01/10 00:18:52;;;;;;;2.05;0.60;;;4.10;85.70;;;;;;4972624;28;20109;-74
2023/01/10 00:21:17;;;;;;;1.95;0.60;;;4.20;85.70;;;;;;4954670;28;20053;-75
2023/01/10 00:23:43;;;;;;;0.40;0.35;;;4.20;85.70;;;;;;5012826;28;20097;-74
2023/01/10 00:26:10;;;;;;;1.45;0.38;;;4.10;86.10;;;;;;5073816;28;20059;-76
2023/01/10 00:28:37;;;;;;;1.00;0.45;;;3.90;86.60;;;;;;5073590;28;20419;-74
2023/01/10 00:31:05;;;;;;;1.35;0.40;;;3.60;87.60;;;;;;5073500;28;20412;-75
2023/01/10 00:33:32;;;;;;;0.80;0.38;;;3.60;88.40;;;;;;5073594;28;20074;-75
2023/01/10 00:35:59;;;;;;;0.90;0.40;;;3.50;88.80;;;;;;5073556;28;20033;-74
2023/01/10 00:38:24;;;;;;;2.60;0.50;;;3.60;88.80;;;;;;5073423;28;20411;-73
2023/01/10 00:40:50;;;;;;;1.20;0.50;;;3.70;88.80;;;;;;5073528;28;20020;-75
2023/01/10 00:46:01;;;;;;;1.95;0.40;;;3.80;88.00;;;;;;5073419;28;20088;-74
2023/01/10 00:48:27;;;;;;;0.82;0.30;;;3.80;87.70;;;;;;5073367;28;20061;-74
2023/01/10 00:50:52;;;;;;;0.95;0.52;;;3.80;87.70;;;;;;5073246;28;20123;-74
2023/01/10 00:53:18;;;;;;;0.70;0.40;;;3.70;88.80;;;;;;5072939;28;20048;-74
2023/01/10 00:55:43;;;;;;;2.03;0.60;;;3.70;88.20;;;;;;5071993;28;20024;-74
2023/01/10 00:58:10;;;;;;;2.35;0.30;;;3.70;87.90;;;;;;5072974;28;20024;-76
2023/01/10 01:00:37;;;;;;;1.30;0.47;;;3.60;88.30;;;;;;5073176;28;20024;-74
2023/01/10 01:03:04;;;;;;;0.73;0.40;;;3.60;88.60;;;;;;5072886;28;20021;-74
2023/01/10 01:05:30;;;;;;;0.55;0.47;;;3.60;88.70;;;;;;5072870;28;20020;-74
2023/01/10 01:07:56;;;;;;;0.30;0.30;;;3.70;88.70;;;;;;5073101;28;20376;-74
2023/01/10 01:10:27;;;;;;;0.43;0.28;;;3.70;88.50;;;;;;5072959;28;20035;-74
2023/01/10 01:12:55;;;;;;;0.30;0.30;;;3.70;88.40;;;;;;5073027;28;20024;-74
2023/01/10 01:15:20;;;;;;;0.75;0.38;;;3.70;88.50;;;;;;5072884;28;20031;-75
2023/01/10 01:17:47;;;;;;;0.60;0.40;;;3.70;88.40;;;;;;5072864;28;20100;-75
2023/01/10 01:20:13;;;;;;;0.60;0.40;;;3.70;88.40;;;;;;5072955;28;20063;-74
2023/01/10 01:22:39;;;;;;;0.90;0.20;;;3.70;88.30;;;;;;5054872;28;20457;-74
2023/01/10 01:25:05;;;;;;;0.40;0.40;;;3.70;88.70;;;;;;5054956;28;20048;-74
2023/01/10 01:27:31;;;;;;;1.98;0.45;;;3.70;88.30;;;;;;5054966;28;20059;-74
2023/01/10 01:29:56;;;;;;;3.25;0.50;;;3.70;88.00;;;;;;5072900;28;20028;-74
2023/01/10 01:32:22;;;;;;;1.35;0.70;;;3.70;87.90;;;;;;5074923;28;20036;-74
2023/01/10 01:34:48;;;;;;;0.82;0.63;;;3.70;87.70;;;;;;5077033;28;20035;-74
2023/01/10 01:37:14;;;;;;;1.10;0.40;;;3.70;87.90;;;;;;5077074;28;20032;-75
2023/01/10 01:39:39;;;;;;;0.50;0.40;;;3.70;87.80;;;;;;5077136;28;20385;-74
2023/01/10 01:42:05;;;;;;;1.17;0.30;;;3.70;87.90;;;;;;5076973;28;20025;-76
2023/01/10 01:44:34;;;;;;;1.45;0.43;;;3.70;87.60;;;;;;5076858;28;20025;-75
2023/01/10 01:47:07;;;;;;;0.82;0.45;;;3.70;87.70;;;;;;5076842;28;20027;-75
2023/01/10 01:49:37;;;;;;;2.92;0.40;;;3.70;87.50;;;;;;5058964;28;20032;-76
2023/01/10 01:52:09;;;;;;;1.45;0.50;;;3.60;87.60;;;;;;5083361;28;20112;-75
2023/01/10 01:54:35;;;;;;;1.80;0.40;;;3.60;87.50;;;;;;5080136;28;20024;-75
2023/01/10 01:57:12;;;;;;;0.77;0.55;;;3.50;87.50;;;;;;5075493;28;20037;-76
2023/01/10 01:59:42;;;;;;;1.85;0.82;;;3.50;88.40;;;;;;5075356;28;20461;-75
2023/01/10 02:02:20;;;;;;;1.45;0.77;;;3.50;88.10;;;;;;5075121;28;20039;-75
2023/01/10 02:04:56;;;;;;;3.72;1.08;;;3.60;88.80;;;;;;5075423;28;20028;-75
2023/01/10 02:07:24;;;;;;;1.60;0.68;;;3.60;87.80;;;;;;5075176;28;20056;-75
2023/01/10 02:10:16;;;;;;;2.03;0.60;;;3.60;88.10;;;;;;5074812;28;20029;-75
2023/01/10 02:12:44;;;;;;;2.75;0.80;;;3.60;88.10;;;;;;5074862;28;20021;-75
2023/01/10 02:15:10;;;;;;;2.75;1.00;;;3.60;88.20;;;;;;5075127;28;20028;-76
2023/01/10 02:17:37;;;;;;;3.53;0.65;;;3.60;88.30;;;;;;5074850;28;20477;-74
2023/01/10 02:20:07;;;;;;;2.08;0.60;;;3.60;88.50;;;;;;5074868;28;20028;-74
2023/01/10 02:22:50;;;;;;;1.23;0.60;;;3.70;88.40;;;;;;5074951;28;20020;-74
2023/01/10 02:25:43;;;;;;;2.22;0.52;;;3.70;88.40;;;;;;5074594;28;20025;-75
2023/01/10 02:28:26;;;;;;;2.15;0.70;;;3.70;88.60;;;;;;5056542;28;20040;-74
2023/01/10 02:31:23;;;;;;;1.58;0.70;;;3.60;88.60;;;;;;5074455;28;20036;-75
2023/01/10 02:34:12;;;;;;;4.45;0.82;;;3.70;88.60;;;;;;5074687;28;20027;-75
2023/01/10 02:37:10;;;;;;;1.35;0.50;;;3.70;88.60;;;;;;5074578;28;20473;-74
2023/01/10 02:40:15;;;;;;;3.03;0.57;;;3.70;88.70;;;;;;5074378;28;20499;-74
2023/01/10 02:43:00;;;;;;;2.15;0.73;;;3.70;88.70;;;;;;5073143;28;20032;-74
2023/01/10 02:45:45;;;;;;;2.80;0.63;;;3.70;88.80;;;;;;5074938;28;20396;-74
2023/01/10 02:48:11;;;;;;;1.52;0.40;;;3.70;88.80;;;;;;5074315;28;20037;-73
2023/01/10 02:50:46;;;;;;;1.73;0.77;;;3.70;88.90;;;;;;5089058;28;20032;-73
2023/01/10 02:53:24;;;;;;;2.17;0.32;;;3.60;88.70;;;;;;5061944;28;1042063;-72
2023/01/10 02:56:14;;;;;;;0.63;0.40;;;3.60;88.60;;;;;;5099750;28;20024;-73
2023/01/10 02:58:58;;;;;;;0.30;0.30;;;3.70;88.30;;;;;;5098539;28;20013;-73
2023/01/10 03:01:58;;;;;;;1.52;0.40;;;3.60;88.40;;;;;;5086296;28;20025;-73
2023/01/10 03:04:36;;;;;;;1.58;0.50;;;3.50;88.40;;;;;;5057244;28;20029;-73
2023/01/10 03:07:07;;;;;;;1.50;0.20;;;3.60;88.10;;;;;;5075036;28;20074;-74
2023/01/10 03:09:47;;;;;;;0.22;0.20;;;3.60;87.60;;;;;;5079155;28;20021;-74
2023/01/10 03:12:29;;;;;;;0.50;0.22;;;3.50;87.70;;;;;;5076305;28;20477;-73
2023/01/10 03:14:56;;;;;;;0.30;0.30;;;3.50;88.10;;;;;;5074917;28;20021;-73
2023/01/10 03:17:24;;;;;;;0.20;0.20;;;3.50;88.10;;;;;;5074875;28;20106;-73
2023/01/10 03:19:54;;;;;;;3.17;0.30;;;3.40;88.10;;;;;;5075101;28;20017;-73
2023/01/10 03:22:21;;;;;;;2.30;0.25;;;3.40;88.50;;;;;;5074851;28;20024;-73
2023/01/10 03:24:48;;;;;;;1.27;0.47;;;3.40;88.40;;;;;;5074700;28;20087;-73
2023/01/10 03:27:24;;;;;;;1.30;0.30;;;3.40;88.50;;;;;;5074879;28;20021;-73
2023/01/10 03:29:53;;;;;;;2.85;0.50;;;3.40;88.30;;;;;;5074626;28;20388;-73
2023/01/10 03:32:24;;;;;;;3.00;0.57;;;3.40;88.10;;;;;;5074730;28;20107;-73
2023/01/10 03:34:50;;;;;;;1.00;0.55;;;3.40;87.90;;;;;;5074509;28;20049;-74
2023/01/10 03:37:36;;;;;;;3.53;0.70;;;3.50;88.10;;;;;;5074664;28;20536;-73
2023/01/10 03:40:06;;;;;;;;;;;3.50;87.60;;;;;;5074911;28;20024;-74
2023/01/10 03:45:35;;;;;;;2.55;0.75;;;3.50;87.80;;;;;;5074492;28;20055;-74
2023/01/10 03:48:04;;;;;;;2.97;0.70;;;3.50;87.50;;;;;;5074488;28;20028;-74
2023/01/10 03:50:31;;;;;;;2.03;0.68;;;3.40;87.40;;;;;;5074399;28;20095;-73
2023/01/10 03:52:57;;;;;;;1.33;0.60;;;3.40;87.50;;;;;;5074034;28;20177;-75
2023/01/10 03:55:27;;;;;;;1.67;0.60;;;3.50;87.50;;;;;;5073543;28;20029;-75
2023/01/10 03:57:53;;;;;;;2.70;0.77;;;3.40;87.10;;;;;;5074153;28;20029;-75
2023/01/10 04:00:19;;;;;;;3.20;0.47;;;3.40;87.00;;;;;;5074140;28;20020;-75
2023/01/10 04:02:45;;;;;;;2.90;0.60;;;3.50;87.00;;;;;;5074012;28;20029;-75
2023/01/10 04:05:11;;;;;;;2.42;0.60;;;3.50;87.30;;;;;;5074037;28;20483;-75
2023/01/10 04:07:37;;;;;;;2.20;0.80;;;3.40;87.40;;;;;;5091421;28;20032;-75
2023/01/10 04:10:04;;;;;;;4.15;0.80;;;3.40;87.30;;;;;;5082081;28;20036;-75
2023/01/10 04:12:30;;;;;;;2.70;1.10;;;3.40;87.50;;;;;;5074052;28;20100;-75
2023/01/10 04:14:55;;;;;;;1.67;0.65;;;3.40;87.40;;;;;;5073943;28;20051;-75
2023/01/10 04:17:21;;;;;;;2.13;0.60;;;3.40;87.70;;;;;;5073956;28;20392;-76
2023/01/10 04:19:47;;;;;;;1.40;0.65;;;3.50;88.00;;;;;;5073646;28;20469;-75
2023/01/10 04:22:13;;;;;;;2.72;0.68;;;3.50;88.00;;;;;;5073745;28;20028;-75
2023/01/10 04:24:39;;;;;;;3.17;1.05;;;3.50;87.60;;;;;;5073779;28;20028;-74
2023/01/10 04:27:05;;;;;;;1.77;0.80;;;3.60;87.40;;;;;;5073680;28;20027;-73
2023/01/10 04:29:30;;;;;;;3.72;0.95;;;3.50;87.30;;;;;;5073340;28;20078;-74
2023/01/10 04:31:56;;;;;;;4.63;1.10;;;3.60;87.30;;;;;;5073585;28;20028;-74
2023/01/10 04:34:21;;;;;;;2.20;1.00;;;3.60;86.70;;;;;;5073461;28;20103;-73
2023/01/10 04:36:48;;;;;;;6.65;1.38;;;3.60;86.30;;;;;;5073440;28;20021;-77
2023/01/10 04:39:14;;;;;;;7.28;1.58;;;3.60;86.20;;;;;;5073421;28;20016;-73
2023/01/10 04:41:40;;;;;;;4.78;1.25;;;3.60;86.20;;;;;;5073306;28;20029;-74
2023/01/10 04:44:05;;;;;;;9.30;2.05;;;3.60;85.90;;;;;;5073333;28;20031;-76
2023/01/10 04:46:31;;;;;;;6.45;1.88;;;3.60;86.00;;;;;;5073134;28;20400;-76
2023/01/10 04:48:57;;;;;;;4.80;1.33;;;3.50;86.20;;;;;;5073216;28;20051;-74
2023/01/10 04:51:23;;;;;;;5.03;1.25;;;3.50;86.50;;;;;;5073155;28;20024;-73
2023/01/10 04:53:49;;;;;;;7.97;1.75;;;3.40;86.50;;;;;;5072964;28;20075;-76
2023/01/10 04:56:19;;;;;;;10.23;1.83;;;3.40;87.00;;;;;;5072939;28;20020;-74
2023/01/10 04:58:45;;;;;;;4.97;1.50;;;3.40;87.40;;;;;;5073890;28;20434;-73
2023/01/10 05:01:16;;;;;;;6.28;1.50;;;3.30;87.60;;;;;;5075731;28;20025;-80
2023/01/10 05:03:42;;;;;;;7.60;2.33;;;3.30;87.70;;;;;;5084426;28;20031;-75
2023/01/10 05:06:07;;;;;;;6.18;1.67;;;3.20;87.80;;;;;;5079849;28;20044;-75
2023/01/10 05:08:33;;;;;;;7.80;2.13;;;3.30;88.00;;;;;;5092917;28;20032;-74
2023/01/10 05:10:59;;;;;;;10.30;1.98;;;3.30;87.90;;;;;;5092425;28;20036;-74
2023/01/10 05:13:25;;;;;;;8.93;2.22;;;3.30;87.90;;;;;;5089537;28;20097;-75
2023/01/10 05:15:56;;;;;;;8.55;2.40;;;3.20;87.70;;;;;;5073346;28;20028;-75
2023/01/10 05:18:23;;;;;;;5.50;2.10;;;3.30;87.70;;;;;;5072999;28;20029;-75
2023/01/10 05:20:49;;;;;;;12.68;2.75;;;3.30;87.70;;;;;;5072936;28;20033;-75
2023/01/10 05:23:14;;;;;;;9.50;2.42;;;3.40;87.50;;;;;;5072594;28;20036;-75
2023/01/10 05:25:40;;;;;;;9.57;2.40;;;3.40;87.10;;;;;;5072861;28;20381;-75
2023/01/10 05:28:05;;;;;;;5.80;2.13;;;3.40;86.90;;;;;;5072850;28;20012;-74
2023/01/10 05:30:31;;;;;;;5.30;1.92;;;3.40;86.80;;;;;;5072607;28;20078;-75
2023/01/10 05:32:56;;;;;;;8.15;2.15;;;3.40;86.70;;;;;;5072704;28;20051;-74
2023/01/10 05:35:22;;;;;;;6.97;2.00;;;3.50;86.40;;;;;;5072661;28;20103;-73
2023/01/10 05:37:47;;;;;;;9.65;2.13;;;3.50;86.30;;;;;;5036637;28;20064;-74
2023/01/10 05:40:13;;;;;;;8.25;2.05;;;3.40;86.00;;;;;;4990454;28;20458;-73
2023/01/10 05:42:38;;;;;;;12.27;3.15;;;3.50;86.20;;;;;;4990192;28;20428;-74
2023/01/10 05:45:04;;;;;;;9.50;2.95;;;3.40;86.00;;;;;;4973131;28;20054;-74
2023/01/10 05:47:30;;;;;;;9.13;2.75;;;3.50;86.20;;;;;;4990540;28;20022;-74
2023/01/10 05:49:56;;;;;;;9.02;2.67;;;3.50;86.00;;;;;;4990292;28;20030;-73
2023/01/10 05:52:21;;;;;;;7.13;2.20;;;3.40;85.60;;;;;;4990343;28;20047;-75
2023/01/10 05:54:47;;;;;;;5.88;2.22;;;3.40;86.00;;;;;;4990434;28;20062;-73
2023/01/10 05:57:12;;;;;;;12.82;3.20;;;3.50;86.20;;;;;;4990392;28;20037;-73
2023/01/10 05:59:38;;;;;;;9.88;2.90;;;3.50;85.80;;;;;;4990438;28;20527;-73
2023/01/10 06:02:03;;;;;;;7.63;2.50;;;3.50;85.70;;;;;;4990483;28;20058;-73
2023/01/10 06:04:29;;;;;;;10.18;3.15;;;3.50;85.70;;;;;;4990443;28;20023;-73
2023/01/10 06:06:54;;;;;;;7.07;2.35;;;3.50;85.90;;;;;;4990155;28;20031;-73
2023/01/10 06:09:20;;;;;;;13.23;3.17;;;3.50;85.90;;;;;;4990165;28;20094;-73
2023/01/10 06:11:45;;;;;;;7.75;2.38;;;3.50;85.80;;;;;;4989852;28;20034;-73
2023/01/10 06:14:11;;;;;;;11.43;3.15;;;3.40;86.10;;;;;;4972554;28;20113;-73
2023/01/10 06:16:36;;;;;;;18.55;4.20;;;3.40;85.80;;;;;;4989856;28;20045;-74
2023/01/10 06:19:02;;;;;;;10.90;2.40;;;3.30;86.40;;;;;;4992630;28;20023;-73
2023/01/10 06:21:28;;;;;;;10.38;2.28;;;3.30;86.80;;;;;;4993056;28;20038;-73
2023/01/10 06:23:53;;;;;;;14.68;2.60;;;3.00;87.50;;;;;;4996951;28;20109;-74
2023/01/10 06:26:19;;;;;;;10.75;2.22;;;3.10;88.10;;;;;;4995243;28;20023;-73
2023/01/10 06:28:45;;;;;;;7.50;1.95;;;3.10;88.00;;;;;;4992468;28;20038;-74
2023/01/10 06:31:10;;;;;;;9.77;1.90;;;3.10;87.90;;;;;;4992536;28;20088;-74
2023/01/10 06:33:37;;;;;;;10.35;2.03;;;3.10;88.00;;;;;;4992591;28;20022;-74
2023/01/10 06:36:03;;;;;;;11.45;2.67;;;3.10;87.90;;;;;;4992690;28;20500;-74
2023/01/10 06:38:29;;;;;;;11.13;2.38;;;3.10;87.60;;;;;;4992601;28;20052;-74
2023/01/10 06:40:54;;;;;;;8.88;3.10;;;3.20;87.60;;;;;;4992941;28;20494;-75
2023/01/10 06:43:20;;;;;;;6.82;2.80;;;3.20;87.30;;;;;;4992651;28;20026;-75
2023/01/10 06:45:45;;;;;;;12.23;2.40;;;3.20;87.40;;;;;;4993047;28;20023;-76
2023/01/10 06:48:11;;;;;;;9.65;2.50;;;3.30;87.60;;;;;;4975675;28;20382;-75
2023/01/10 06:50:37;;;;;;;12.35;2.20;;;3.30;87.70;;;;;;4993018;28;20296;-75
2023/01/10 06:53:03;;;;;;;9.07;2.08;;;3.40;87.10;;;;;;4992544;28;20057;-75
2023/01/10 06:55:29;;;;;;;11.95;2.53;;;3.40;86.90;;;;;;4992695;28;20535;-75
2023/01/10 06:58:00;;;;;;;11.40;2.80;;;3.30;87.20;;;;;;4992914;28;20386;-74
2023/01/10 07:00:28;;;;;;;10.73;2.35;;;3.30;87.60;;;;;;4992827;28;20022;-74
2023/01/10 07:02:56;;;;;;;14.77;3.20;;;3.20;87.50;;;;;;4992756;28;20080;-74
2023/01/10 07:05:22;;;;;;;11.25;3.00;;;3.30;87.70;;;;;;4975430;28;20113;-74
2023/01/10 07:07:47;;;;;;;16.33;2.78;;;3.30;87.60;;;;;;4992812;28;20113;-75
2023/01/10 07:10:13;;;;;;;12.77;2.60;;;3.30;87.40;;;;;;4992562;28;20478;-74
2023/01/10 07:12:38;;;;;;;12.35;2.88;;;3.40;87.20;;;;;;4992559;28;20091;-74
2023/01/10 07:15:05;;;;;;;13.95;3.67;;;3.30;86.00;;;;;;4992574;28;20023;-76
2023/01/10 07:17:30;;;;;;;8.48;2.58;;;3.40;85.80;;;;;;4975251;28;20103;-76
2023/01/10 07:19:56;;;;;;;11.45;2.55;;;3.40;84.60;;;;;;4992350;28;20494;-78
2023/01/10 07:22:22;;;;;;;12.55;3.40;;;3.40;84.80;;;;;;4992615;28;20350;-74
2023/01/10 07:24:47;;;;;;;12.65;2.40;;;3.40;84.40;;;;;;4992398;28;20035;-76
2023/01/10 07:27:13;;;;;;;12.65;2.53;;;3.40;83.90;;;;;;4992215;28;20467;-76
2023/01/10 07:29:39;;;;;;;10.32;2.25;;;3.40;83.60;;;;;;4991178;28;20034;-76
2023/01/10 07:32:05;;;;;;;16.90;3.03;;;3.40;83.40;;;;;;4992356;28;20035;-76
2023/01/10 07:34:30;;;;;;;15.10;2.97;;;3.40;83.10;;;;;;4992402;28;20023;-77
2023/01/10 07:36:56;;;;;;;9.65;2.10;;;3.50;83.30;;;;;;4992113;28;20026;-77
2023/01/10 07:39:21;;;;;;;8.45;2.28;;;3.50;81.60;;;;;;4992304;28;20022;-75
2023/01/10 07:41:48;;;;;;;10.00;2.30;;;3.50;80.60;;;;;;4992127;28;20026;-75
2023/01/10 07:44:13;;;;;;;14.68;2.22;;;3.60;83.00;;;;;;4992193;28;20075;-76
2023/01/10 07:46:39;;;;;;;9.32;2.63;;;4.00;83.80;;;;;;4975443;28;20030;-76
2023/01/10 07:49:05;;;;;;;7.72;2.25;;;4.20;80.00;;;;;;4995182;28;20033;-75
2023/01/10 07:51:31;;;;;;;9.38;2.35;;;4.40;79.00;;;;;;5016471;28;20022;-74
2023/01/10 07:53:56;;;;;;;12.40;2.53;;;4.40;76.40;;;;;;5015498;28;20041;-76
2023/01/10 07:56:22;;;;;;;12.27;2.78;;;4.50;76.70;;;;;;5015061;28;20038;-75
2023/01/10 07:58:48;;;;;;;7.63;2.17;;;4.70;76.60;;;;;;5006210;28;20041;-75
2023/01/10 08:01:14;;;;;;;12.57;2.60;;;5.00;75.90;;;;;;4991787;28;20061;-74
2023/01/10 08:03:39;;;;;;;9.13;2.15;;;5.20;75.60;;;;;;4974116;28;20022;-75
2023/01/10 08:06:09;;;;;;;13.00;2.55;;;5.30;74.70;;;;;;4991606;28;20034;-75
2023/01/10 08:08:35;;;;;;;8.15;2.03;;;5.40;74.50;;;;;;4991650;28;20444;-73
2023/01/10 08:11:03;;;;;;;7.03;1.80;;;5.40;73.10;;;;;;4991538;28;20030;-73
2023/01/10 08:13:30;;;;;;;9.95;1.98;;;5.20;73.10;;;;;;4991703;28;20538;-73
2023/01/10 08:15:56;;;;;;;10.45;2.05;;;4.90;74.60;;;;;;4991526;28;20064;-73
2023/01/10 08:18:22;;;;;;;10.77;2.67;;;4.50;75.90;;;;;;4991563;28;20054;-73
2023/01/10 08:20:49;;;;;;;8.77;2.08;;;4.30;77.80;;;;;;4992697;28;20498;-73
2023/01/10 08:23:15;;;;;;;9.55;2.08;;;4.10;79.40;;;;;;4991455;28;20054;-73
2023/01/10 08:25:40;;;;;;;8.80;2.22;;;3.90;80.40;;;;;;4973872;28;20072;-72
2023/01/10 08:28:06;;;;;;;10.63;2.10;;;3.90;80.20;;;;;;4991491;28;20033;-73
2023/01/10 08:30:31;;;;;;;9.52;2.20;;;3.90;80.70;;;;;;4990907;28;20083;-73
2023/01/10 08:32:57;;;;;;;8.70;1.85;;;3.90;81.00;;;;;;4991303;28;20099;-73
2023/01/10 08:35:22;;;;;;;9.23;2.05;;;3.90;80.90;;;;;;4991243;28;20109;-73
2023/01/10 08:37:48;;;;;;;7.18;1.60;;;3.90;80.60;;;;;;4991430;28;20501;-73
2023/01/10 08:40:14;;;;;;;11.02;2.30;;;4.00;79.80;;;;;;4990792;28;20026;-73
2023/01/10 08:42:39;;;;;;;7.85;1.90;;;4.00;79.60;;;;;;4991309;28;20374;-73
2023/01/10 08:45:05;;;;;;;7.88;1.75;;;4.10;79.80;;;;;;4991068;28;20030;-73
2023/01/10 08:47:31;;;;;;;8.18;1.65;;;4.10;78.40;;;;;;5014217;28;20032;-73
2023/01/10 08:49:56;;;;;;;7.40;1.92;;;4.10;78.20;;;;;;5022940;28;20054;-73
2023/01/10 08:52:22;;;;;;;6.60;2.17;;;4.10;76.70;;;;;;5015707;28;20059;-72
2023/01/10 08:54:49;;;;;;;10.57;1.88;;;4.10;76.90;;;;;;5008131;28;20048;-73
2023/01/10 08:57:14;;;;;;;6.82;1.60;;;4.10;75.50;;;;;;4971320;28;20026;-73
2023/01/10 08:59:40;;;;;;;12.57;1.85;;;4.10;75.60;;;;;;4972359;28;20023;-73
2023/01/10 09:02:07;;;;;;;11.35;1.83;;;4.00;75.70;;;;;;4972164;28;20046;-73
2023/01/10 09:04:32;;;;;;;9.65;1.83;;;4.00;76.00;;;;;;4972059;28;20027;-73
2023/01/10 09:06:58;;;;;;;8.45;1.75;;;4.10;75.60;;;;;;4972051;28;20037;-73
2023/01/10 09:09:23;;;;;;;7.85;1.45;;;4.10;74.60;;;;;;4971894;28;20383;-73
2023/01/10 09:11:49;;;;;;;11.93;2.22;;;4.20;74.90;;;;;;4955196;28;20031;-73
2023/01/10 09:14:15;;;;;;;11.60;1.73;;;4.20;75.00;;;;;;4972096;28;20027;-74
2023/01/10 09:16:40;;;;;;;9.52;2.33;;;4.30;75.50;;;;;;4972082;28;20088;-74
2023/01/10 09:19:06;;;;;;;9.00;2.05;;;4.30;74.00;;;;;;4972081;28;20066;-73
2023/01/10 09:21:31;;;;;;;8.27;1.83;;;4.20;74.90;;;;;;4972166;28;20479;-73
2023/01/10 09:23:57;;;;;;;6.47;1.38;;;4.30;75.40;;;;;;4982284;28;20102;-73
2023/01/10 09:26:23;;;;;;;13.07;1.70;;;4.30;74.80;;;;;;5016051;28;20061;-73
2023/01/10 09:28:48;;;;;;;3.83;1.20;;;4.40;74.00;;;;;;5028873;28;20034;-74
2023/01/10 09:31:14;;;;;;;6.60;1.60;;;4.50;73.80;;;;;;5021163;28;20086;-72
2023/01/10 09:33:41;;;;;;;5.30;1.50;;;4.60;73.90;;;;;;5011684;28;20074;-74
2023/01/10 09:36:07;;;;;;;10.45;1.85;;;4.60;72.60;;;;;;5025950;28;20025;-74
2023/01/10 09:38:33;;;;;;;6.22;1.40;;;4.80;72.10;;;;;;5019427;28;20034;-73
2023/01/10 09:41:05;;;;;;;6.65;1.85;;;4.80;70.90;;;;;;5017837;28;20477;-74
2023/01/10 09:43:47;;;;;;;8.05;1.45;;;4.90;71.50;;;;;;5014797;28;20045;-73
2023/01/10 09:46:31;;;;;;;11.23;1.95;;;4.90;70.50;;;;;;4999225;28;20022;-73
2023/01/10 09:49:13;;;;;;;7.45;1.83;;;5.20;70.50;;;;;;4951295;29;20028;-73
2023/01/10 09:51:42;;;;;;;4.70;1.52;;;5.40;68.60;;;;;;4951390;29;20101;-74
2023/01/10 09:54:30;;;;;;;6.45;1.63;;;5.50;68.30;;;;;;4954065;28;20031;-72
2023/01/10 09:56:58;;;;;;;4.88;1.30;;;5.50;68.20;;;;;;4954864;29;20042;-73
2023/01/10 09:59:27;;;;;;;3.90;1.15;;;5.40;69.20;;;;;;4954773;28;20031;-74
2023/01/10 10:02:03;;;;;;;12.57;1.52;;;5.30;69.20;;;;;;4955037;28;20046;-74
2023/01/10 10:04:38;;;;;;;5.47;1.30;;;5.30;68.70;;;;;;4954933;29;20078;-74
2023/01/10 10:07:11;;;;;;;11.00;1.30;;;5.40;68.70;;;;;;4954714;28;20476;-74
2023/01/10 10:09:37;;;;;;;6.82;1.40;;;5.40;68.00;;;;;;4954696;28;20039;-74
2023/01/10 10:12:08;;;;;;;6.78;1.30;;;5.40;67.50;;;;;;4954678;29;20039;-74
2023/01/10 10:14:45;;;;;;;7.70;1.40;;;5.40;66.00;;;;;;4954755;28;20500;-75
2023/01/10 10:17:48;;;;;;;4.82;1.10;;;5.50;67.20;;;;;;4953459;28;20038;-73
2023/01/10 10:20:41;;;;;;;9.18;1.75;;;5.40;67.70;;;;;;4954538;28;20360;-73
2023/01/10 10:23:23;;;;;;;6.88;1.58;;;5.30;68.80;;;;;;4954633;29;20039;-74
2023/01/10 10:26:09;;;;;;;6.40;1.70;;;5.10;68.90;;;;;;4954573;29;20099;-75
2023/01/10 10:28:38;;;;;;;10.75;1.90;;;4.90;69.00;;;;;;4954572;29;20038;-73
2023/01/10 10:31:47;;;;;;;6.30;1.48;;;4.90;69.30;;;;;;4954137;29;20134;-75
2023/01/10 10:34:42;;;;;;;10.40;1.45;;;4.90;69.30;;;;;;4913980;28;20135;-75
2023/01/10 10:37:18;;;;;;;6.68;1.65;;;4.90;70.80;;;;;;4986495;28;20108;-80
2023/01/10 10:39:50;;;;;;;7.32;1.40;;;4.90;71.20;;;;;;4943600;29;20042;-76
2023/01/10 10:42:17;;;;;;;8.80;1.40;;;5.00;70.80;;;;;;4954562;29;20019;-75
2023/01/10 10:45:01;;;;;;;6.22;1.50;;;5.00;70.00;;;;;;4954016;28;20440;-75
2023/01/10 10:47:34;;;;;;;7.43;1.67;;;4.90;70.40;;;;;;4954529;29;20110;-73
2023/01/10 10:50:23;;;;;;;7.53;1.25;;;4.90;70.60;;;;;;4953674;29;20062;-77
2023/01/10 10:52:48;;;;;;;3.72;0.98;;;5.10;70.30;;;;;;4954103;29;20479;-74
2023/01/10 10:55:22;;;;;;;4.97;1.13;;;5.10;70.00;;;;;;4953932;28;20059;-74
2023/01/10 10:57:48;;;;;;;4.75;1.48;;;5.00;69.50;;;;;;4953834;29;20464;-75
2023/01/10 11:00:18;;;;;;;5.38;1.00;;;5.10;69.90;;;;;;4953901;28;20055;-74
2023/01/10 11:02:57;;;;;;;4.47;1.20;;;5.10;70.20;;;;;;4952667;28;20121;-74
2023/01/10 11:05:37;;;;;;;13.60;1.95;;;5.10;69.10;;;;;;4953822;28;20385;-74
2023/01/10 11:08:12;;;;;;;3.40;1.00;;;5.20;68.60;;;;;;4953740;29;20019;-74
2023/01/10 11:10:39;;;;;;;8.68;1.70;;;5.20;68.20;;;;;;4953550;29;20353;-74
2023/01/10 11:13:34;;;;;;;9.07;1.65;;;5.20;67.70;;;;;;4953537;28;20024;-74
2023/01/10 11:16:01;;;;;;;7.88;1.60;;;5.00;68.10;;;;;;4953722;29;20028;-74
2023/01/10 11:18:28;;;;;;;6.20;1.67;;;5.10;68.70;;;;;;4936411;28;20023;-77
2023/01/10 11:21:00;;;;;;;4.57;1.40;;;5.20;68.00;;;;;;4953911;29;20027;-77
2023/01/10 11:23:44;;;;;;;4.88;1.35;;;5.20;68.00;;;;;;4936251;28;20352;-77
2023/01/10 11:26:35;;;;;;;9.30;1.55;;;5.10;68.50;;;;;;4953439;29;20023;-77
2023/01/10 11:29:26;;;;;;;7.20;1.70;;;5.10;68.30;;;;;;4953461;29;20441;-77
2023/01/10 11:31:54;;;;;;;5.20;1.13;;;5.20;68.90;;;;;;4953514;29;20036;-74
2023/01/10 11:34:34;;;;;;;6.50;1.40;;;5.10;69.40;;;;;;4954049;28;20376;-77
2023/01/10 11:37:02;;;;;;;6.18;1.73;;;5.20;69.20;;;;;;4953208;29;20023;-77
2023/01/10 11:39:30;;;;;;;3.88;1.05;;;5.10;68.80;;;;;;4953446;28;20019;-76
2023/01/10 11:41:58;;;;;;;5.85;1.50;;;5.10;68.10;;;;;;4953288;28;20023;-76
2023/01/10 11:44:28;;;;;;;9.30;1.48;;;5.10;70.00;;;;;;4953316;29;20290;-76
2023/01/10 11:46:57;;;;;;;7.63;1.60;;;5.20;69.00;;;;;;4953308;28;20046;-78
2023/01/10 11:49:43;;;;;;;9.05;1.30;;;5.20;68.30;;;;;;4954780;29;20051;-76
2023/01/10 11:52:14;;;;;;;;;;;5.30;68.40;;;;;;4954083;28;20047;-75
2023/01/10 11:54:40;;;;;;;6.68;1.55;;;5.20;68.00;;;;;;4960994;28;19899;-76
2023/01/10 11:57:07;;;;;;;9.07;1.50;;;5.30;68.60;;;;;;4975200;28;20079;-75
2023/01/10 11:59:33;;;;;;;22.40;2.17;;;5.30;67.60;;;;;;4975595;28;20034;-76
2023/01/10 12:02:03;;;;;;;11.70;1.83;;;5.40;68.80;;;;;;4971933;28;20027;-77
2023/01/10 12:04:38;;;;;;;4.85;1.33;;;5.50;68.50;;;;;;4970872;29;20055;-76
2023/01/10 12:07:08;;;;;;;5.70;1.30;;;5.50;67.60;;;;;;4958706;29;20051;-76
2023/01/10 12:09:44;;;;;;;7.65;1.77;;;5.50;68.10;;;;;;4950851;28;20023;-76
2023/01/10 12:12:12;;;;;;;;;;;5.60;68.10;;;;;;4952880;29;20065;-76
2023/01/10 12:14:38;;;;;;;7.07;1.38;;;5.80;66.70;;;;;;4952430;29;19910;-75
2023/01/10 12:17:03;;;;;;;9.48;1.48;;;5.90;65.20;;;;;;4951522;28;20031;-77
2023/01/10 12:19:29;;;;;;;5.53;1.30;;;5.90;66.10;;;;;;4951968;29;20031;-76
2023/01/10 12:21:59;;;;;;;3.88;1.00;;;5.90;66.60;;;;;;4952290;28;20035;-76
2023/01/10 12:24:33;;;;;;;5.60;1.27;;;5.90;65.50;;;;;;4950798;28;20038;-76
2023/01/10 12:27:03;;;;;;;6.60;1.50;;;5.90;64.10;;;;;;4952175;29;20164;-77
2023/01/10 12:29:38;;;;;;;7.45;1.05;;;6.10;64.60;;;;;;4952100;28;20027;-76
2023/01/10 12:32:05;;;;;;;5.47;1.00;;;6.30;62.30;;;;;;4952168;29;20046;-78
2023/01/10 12:34:45;;;;;;;8.63;1.48;;;6.30;60.60;;;;;;4951886;28;20035;-76
2023/01/10 12:37:27;;;;;;;4.70;0.93;;;6.30;60.00;;;;;;4952294;29;20050;-75
2023/01/10 12:39:59;;;;;;;7.15;1.50;;;7.60;56.10;;;;;;4952230;29;20364;-76
2023/01/10 12:45:29;;;;;;;4.07;1.13;;;7.60;53.20;;;;;;4952946;29;20055;-76
2023/01/10 12:48:03;;;;;;;7.00;1.25;;;7.00;55.80;;;;;;4952049;29;20024;-76
2023/01/10 12:50:34;;;;;;;9.10;1.75;;;6.60;57.00;;;;;;4952766;29;20035;-77
2023/01/10 12:53:15;;;;;;;4.28;1.20;;;6.30;59.80;;;;;;4952856;29;20047;-77
2023/01/10 12:55:44;;;;;;;3.53;1.15;;;5.80;59.10;;;;;;4956719;29;20028;-76
2023/01/10 12:58:20;;;;;;;9.88;1.50;;;5.60;61.20;;;;;;4952083;28;20023;-76
2023/01/10 13:00:50;;;;;;;6.07;1.33;;;5.40;61.80;;;;;;4952138;29;20034;-77
2023/01/10 13:03:20;;;;;;;6.35;1.10;;;5.60;61.90;;;;;;4952198;28;20035;-76
2023/01/10 13:05:48;;;;;;;7.85;1.30;;;6.00;60.00;;;;;;4934440;28;20118;-77
2023/01/10 13:08:20;;;;;;;8.88;1.50;;;6.20;59.50;;;;;;4951878;28;20027;-76
2023/01/10 13:10:49;;;;;;;13.20;1.67;;;6.00;59.70;;;;;;4951956;29;20048;-76
2023/01/10 13:13:49;;;;;;;7.80;1.52;;;6.00;59.70;;;;;;4952010;28;20023;-76
2023/01/10 13:16:14;;;;;;;12.25;1.95;;;6.00;60.70;;;;;;4952088;29;20124;-76
2023/01/10 13:19:09;;;;;;;6.97;1.52;;;6.00;60.40;;;;;;4952170;28;20483;-77
2023/01/10 13:21:37;;;;;;;5.05;1.30;;;6.10;60.00;;;;;;4952071;29;20376;-78